Terminal Aerodrome Forecast
Issued by NWS Raleigh/Durham, NC

Home | Current Version | Previous Version | Text Only | Print | Product List | Glossary On
Versions: 1 2 3 4 5 6 7 8 9 10 11 12 13 14 15 16
000
FTUS42 KRAH 202330
TAFGSO
TAF
KGSO 202330Z 2100/2124 VRB03KT P6SM BKN250
      TEMPO 2109/2112 6SM BR SCT004
     FM211600 14005KT P6SM FEW050 BKN250=

USA.gov is the U.S. government's official web portal to all federal, state and local government web resources and services.